createdAt,value
2019-02-05T00:01:55.046Z,18.23
2019-02-05T00:04:26.156Z,15.63
2019-02-05T00:06:57.208Z,18.80
2019-02-05T00:09:28.119Z,21.60
2019-02-05T00:11:59.431Z,20.07
2019-02-05T00:14:30.248Z,17.10
2019-02-05T00:17:01.165Z,19.77
2019-02-05T00:19:32.280Z,19.33
2019-02-05T00:22:03.248Z,19.00
2019-02-05T00:24:34.213Z,20.23
2019-02-05T00:27:05.161Z,19.33
2019-02-05T00:29:36.172Z,18.77
2019-02-05T00:32:07.146Z,20.00
2019-02-05T00:34:38.063Z,21.13
2019-02-05T00:37:09.059Z,19.13
2019-02-05T00:39:40.100Z,23.30
2019-02-05T00:42:11.038Z,22.33
2019-02-05T00:44:42.026Z,24.20
2019-02-05T00:47:12.423Z,26.93
2019-02-05T00:49:43.709Z,18.80
2019-02-05T00:52:14.574Z,22.03
2019-02-05T00:54:45.421Z,22.43
2019-02-05T00:57:17.154Z,27.00
2019-02-05T00:59:49.143Z,29.00
2019-02-05T01:02:21.285Z,24.55
2019-02-05T01:04:52.329Z,22.50
2019-02-05T01:07:25.290Z,24.20
2019-02-05T01:09:56.438Z,23.13
2019-02-05T01:12:27.396Z,26.47
2019-02-05T01:14:58.281Z,21.30
2019-02-05T01:17:29.442Z,22.67
2019-02-05T01:20:00.365Z,26.23
2019-02-05T01:22:30.798Z,21.97
2019-02-05T01:25:01.360Z,30.57
2019-02-05T01:27:33.408Z,26.67
2019-02-05T01:30:07.123Z,31.68
2019-02-05T01:32:38.497Z,24.37
2019-02-05T01:35:11.567Z,25.27
2019-02-05T01:37:44.623Z,21.90
2019-02-05T01:40:17.990Z,27.10
2019-02-05T01:42:50.413Z,23.30
2019-02-05T01:45:21.604Z,25.87
2019-02-05T01:47:52.919Z,22.62
2019-02-05T01:50:26.762Z,23.22
2019-02-05T01:52:59.622Z,22.80
2019-02-05T01:55:30.479Z,28.57
2019-02-05T01:58:01.847Z,25.82
2019-02-05T02:00:35.878Z,23.05
2019-02-05T02:03:06.750Z,26.42
2019-02-05T02:05:39.527Z,26.30
2019-02-05T02:08:11.523Z,27.60
2019-02-05T02:10:43.840Z,27.58
2019-02-05T02:13:15.721Z,27.13
2019-02-05T02:15:46.844Z,27.00
2019-02-05T02:18:17.614Z,27.50
2019-02-05T02:20:48.655Z,26.95
2019-02-05T02:23:19.681Z,24.85
2019-02-05T02:25:50.612Z,29.40
2019-02-05T02:28:21.876Z,26.42
2019-02-05T02:30:52.794Z,28.87
2019-02-05T02:33:23.768Z,25.08
2019-02-05T02:35:56.720Z,20.65
2019-02-05T02:38:27.803Z,27.02
2019-02-05T02:40:58.732Z,27.77
2019-02-05T02:43:29.870Z,29.95
2019-02-05T02:46:00.788Z,22.80
2019-02-05T02:48:31.179Z,25.30
2019-02-05T02:51:02.873Z,23.10
2019-02-05T02:53:33.811Z,24.55
2019-02-05T02:56:06.816Z,19.75
2019-02-05T02:58:39.836Z,27.52
2019-02-05T03:01:11.855Z,29.07
2019-02-05T03:03:42.924Z,24.07
2019-02-05T03:06:13.836Z,28.85
2019-02-05T03:08:44.996Z,27.13
2019-02-05T03:11:15.894Z,24.47
2019-02-05T03:13:46.864Z,27.67
2019-02-05T03:16:19.869Z,32.25
2019-02-05T03:18:51.028Z,28.87
2019-02-05T03:21:21.929Z,26.60
2019-02-05T03:23:52.899Z,25.50
2019-02-05T03:26:23.881Z,32.30
2019-02-05T03:28:55.052Z,29.45
2019-02-05T03:31:25.958Z,28.45
2019-02-05T03:33:57.046Z,25.77
2019-02-05T03:36:27.938Z,25.77
2019-02-05T03:38:59.818Z,22.48
2019-02-05T03:41:30.717Z,26.50
2019-02-05T03:44:04.058Z,23.92
2019-02-05T03:46:35.356Z,27.98
2019-02-05T03:49:06.243Z,23.42
2019-02-05T03:52:18.054Z,24.20
2019-02-05T03:55:28.785Z,23.47
2019-02-05T03:58:43.924Z,24.75
2019-02-05T04:02:09.053Z,25.10
2019-02-05T04:05:25.231Z,23.65
2019-02-05T04:08:18.892Z,27.90
2019-02-05T04:11:31.747Z,26.73
2019-02-05T04:15:00.779Z,26.40
2019-02-05T04:17:46.183Z,25.52
2019-02-05T04:20:55.317Z,21.75
2019-02-05T04:24:05.796Z,25.65
2019-02-05T04:27:24.315Z,24.52
2019-02-05T04:30:42.524Z,27.13
2019-02-05T04:33:37.973Z,28.75
2019-02-05T04:36:52.066Z,25.02
2019-02-05T04:39:49.829Z,29.05
2019-02-05T04:43:03.152Z,26.25
2019-02-05T04:46:20.218Z,26.42
2019-02-05T04:49:25.368Z,27.93
2019-02-05T04:52:23.927Z,26.12
2019-02-05T04:55:12.540Z,27.30
2019-02-05T04:58:15.293Z,28.23
2019-02-05T05:01:33.460Z,28.27
2019-02-05T05:04:14.624Z,27.62
2019-02-05T05:07:22.233Z,27.73
2019-02-05T05:09:59.010Z,26.40
2019-02-05T05:12:31.036Z,26.75
2019-02-05T05:15:02.382Z,25.68
2019-02-05T05:17:34.529Z,26.70
2019-02-05T05:20:09.155Z,25.55
2019-02-05T05:22:40.668Z,27.70
2019-02-05T05:25:12.300Z,31.93
2019-02-05T05:27:43.574Z,27.90
2019-02-05T05:30:17.869Z,28.87
2019-02-05T05:32:48.449Z,27.62
2019-02-05T05:35:19.518Z,28.57
2019-02-05T05:37:50.445Z,29.02
2019-02-05T05:40:21.057Z,29.70
2019-02-05T05:42:52.549Z,28.17
2019-02-05T05:45:25.511Z,26.82
2019-02-05T05:47:57.690Z,24.63
2019-02-05T05:50:29.543Z,26.68
2019-02-05T05:53:00.825Z,28.00
2019-02-05T05:55:31.334Z,32.23
2019-02-05T05:58:05.046Z,26.05
2019-02-05T06:00:36.562Z,27.75
2019-02-05T06:03:08.722Z,27.22
2019-02-05T06:05:39.609Z,27.30
2019-02-05T06:08:11.757Z,23.60
2019-02-05T06:10:42.514Z,26.02
2019-02-05T06:13:13.431Z,18.70
2019-02-05T06:15:44.515Z,19.35
2019-02-05T06:18:15.377Z,20.92
2019-02-05T06:20:45.795Z,21.80
2019-02-05T06:23:16.697Z,18.25
2019-02-05T06:25:47.934Z,18.95
2019-02-05T06:28:18.890Z,22.25
2019-02-05T06:30:49.729Z,19.62
2019-02-05T06:33:23.400Z,19.77
2019-02-05T06:35:54.815Z,20.70
2019-02-05T06:38:27.123Z,24.00
2019-02-05T06:41:00.049Z,24.80
2019-02-05T06:43:30.606Z,21.77
2019-02-05T06:46:02.932Z,26.42
2019-02-05T06:48:33.862Z,22.62
2019-02-05T06:51:05.366Z,17.42
2019-02-05T06:53:36.837Z,21.90
2019-02-05T06:56:07.356Z,25.55
2019-02-05T06:58:46.516Z,18.02
2019-02-05T07:01:13.039Z,23.40
2019-02-05T07:03:43.866Z,21.67
2019-02-05T07:06:14.868Z,16.57
2019-02-05T07:08:45.865Z,19.17
2019-02-05T07:11:16.996Z,17.50
2019-02-05T07:13:47.951Z,14.53
2019-02-05T07:16:19.549Z,15.37
2019-02-05T07:18:49.950Z,14.60
2019-02-05T07:21:21.098Z,16.70
2019-02-05T07:23:54.289Z,18.33
2019-02-05T07:26:26.231Z,12.23
2019-02-05T07:29:00.033Z,17.37
2019-02-05T07:31:30.094Z,15.60
2019-02-05T07:34:01.065Z,15.17
2019-02-05T07:36:31.487Z,15.57
2019-02-05T07:39:04.863Z,20.00
2019-02-05T07:41:37.409Z,14.83
2019-02-05T07:44:08.115Z,15.70
2019-02-05T07:46:39.118Z,21.43
2019-02-05T07:49:10.226Z,19.87
2019-02-05T07:51:41.169Z,14.03
2019-02-05T07:54:12.103Z,20.97
2019-02-05T07:56:43.259Z,19.20
2019-02-05T07:59:16.200Z,11.47
2019-02-05T08:01:48.114Z,18.60
2019-02-05T08:04:21.259Z,15.33
2019-02-05T08:06:52.149Z,15.83
2019-02-05T08:09:23.164Z,24.60
2019-02-05T08:11:54.232Z,10.87
2019-02-05T08:14:25.131Z,16.33
2019-02-05T08:16:56.528Z,16.23
2019-02-05T08:19:27.404Z,12.13
2019-02-05T08:21:58.274Z,16.27
2019-02-05T08:24:30.305Z,14.43
2019-02-05T08:27:01.610Z,18.07
2019-02-05T08:29:34.305Z,15.57
2019-02-05T08:32:05.244Z,12.83
2019-02-05T08:34:36.221Z,15.77
2019-02-05T08:37:07.237Z,12.77
2019-02-05T08:39:38.212Z,13.33
2019-02-05T08:42:09.282Z,10.93
2019-02-05T08:44:40.061Z,10.70
2019-02-05T08:47:11.202Z,11.00
2019-02-05T08:49:42.050Z,10.17
2019-02-05T08:52:15.594Z,9.93
2019-02-05T08:54:46.351Z,10.73
2019-02-05T08:57:18.462Z,12.57
2019-02-05T08:59:49.417Z,13.00
2019-02-05T09:02:20.382Z,12.50
2019-02-05T09:04:53.335Z,17.63
2019-02-05T09:07:24.436Z,10.43
2019-02-05T09:09:55.550Z,11.90
2019-02-05T09:12:27.569Z,10.70
2019-02-05T09:14:58.423Z,14.60
2019-02-05T09:17:30.742Z,20.00
2019-02-05T09:20:03.587Z,15.27
2019-02-05T09:22:34.434Z,12.93
2019-02-05T09:25:08.440Z,17.33
2019-02-05T09:27:40.829Z,13.13
2019-02-05T09:30:20.461Z,24.23
2019-02-05T09:32:53.718Z,19.27
2019-02-05T09:35:25.736Z,13.40
2019-02-05T09:37:57.884Z,14.40
2019-02-05T09:40:30.284Z,12.13
2019-02-05T09:43:02.529Z,14.00
2019-02-05T09:45:33.555Z,13.50
2019-02-05T09:48:04.533Z,17.57
2019-02-05T09:50:44.258Z,15.30
2019-02-05T09:53:09.679Z,12.17
2019-02-05T09:55:40.890Z,13.10
2019-02-05T09:58:13.614Z,14.43
2019-02-05T10:00:44.062Z,12.10
2019-02-05T10:03:15.050Z,14.10
2019-02-05T10:05:47.039Z,16.50
2019-02-05T10:08:17.782Z,17.00
2019-02-05T10:10:48.835Z,19.40
2019-02-05T10:13:19.299Z,19.27
2019-02-05T10:15:50.680Z,16.60
2019-02-05T10:18:22.194Z,19.93
2019-02-05T10:20:53.068Z,15.37
2019-02-05T10:23:25.776Z,21.77
2019-02-05T10:25:56.783Z,18.60
2019-02-05T10:28:27.903Z,21.20
2019-02-05T10:30:58.780Z,19.70
2019-02-05T10:33:29.832Z,19.93
2019-02-05T10:36:01.382Z,19.87
2019-02-05T10:38:33.962Z,21.17
2019-02-05T10:41:06.365Z,22.23
2019-02-05T10:43:37.033Z,20.80
2019-02-05T10:46:09.266Z,19.67
2019-02-05T10:48:40.085Z,20.70
2019-02-05T10:51:12.855Z,21.97
2019-02-05T10:53:43.817Z,17.03
2019-02-05T10:56:14.755Z,19.73
2019-02-05T10:58:45.694Z,19.00
2019-02-05T11:01:16.667Z,19.90
2019-02-05T11:03:47.139Z,20.27
2019-02-05T11:06:20.069Z,22.13
2019-02-05T11:08:52.061Z,19.60
2019-02-05T11:11:23.998Z,18.97
2019-02-05T11:13:56.094Z,18.00
2019-02-05T11:16:28.029Z,23.97
2019-02-05T11:18:59.030Z,18.73
2019-02-05T11:21:30.974Z,20.20
2019-02-05T11:24:03.517Z,16.70
2019-02-05T11:26:36.786Z,20.57
2019-02-05T11:29:08.129Z,19.60
2019-02-05T11:31:40.050Z,20.80
2019-02-05T11:34:13.081Z,17.23
2019-02-05T11:36:44.239Z,16.27
2019-02-05T11:39:16.353Z,18.23
2019-02-05T11:41:48.353Z,19.23
2019-02-05T11:44:20.224Z,19.33
2019-02-05T11:46:51.556Z,17.57
2019-02-05T11:49:22.296Z,17.23
2019-02-05T11:51:53.128Z,17.50
2019-02-05T11:54:24.279Z,21.80
2019-02-05T11:56:55.175Z,19.40
2019-02-05T11:59:26.144Z,19.80
2019-02-05T12:01:57.406Z,17.83
2019-02-05T12:04:30.323Z,16.73
2019-02-05T12:07:04.363Z,17.33
2019-02-05T12:09:37.389Z,18.70
2019-02-05T12:12:09.337Z,16.03
2019-02-05T12:14:40.369Z,18.57
2019-02-05T12:17:13.346Z,19.70
2019-02-05T12:19:45.784Z,21.67
2019-02-05T12:22:16.566Z,23.77
2019-02-05T12:24:47.295Z,20.90
2019-02-05T12:27:20.318Z,20.93
2019-02-05T12:29:52.615Z,33.90
2019-02-05T12:32:23.333Z,19.43
2019-02-05T12:34:54.387Z,19.20
2019-02-05T12:37:25.525Z,18.33
2019-02-05T12:39:56.343Z,20.80
2019-02-05T12:42:29.500Z,16.60
2019-02-05T12:45:00.419Z,20.83
2019-02-05T12:47:30.948Z,17.90
2019-02-05T12:50:02.429Z,18.80
2019-02-05T12:52:34.412Z,17.83
2019-02-05T12:55:13.269Z,18.80
2019-02-05T12:57:37.611Z,16.33
2019-02-05T13:00:22.041Z,17.07
2019-02-05T13:02:54.629Z,17.13
2019-02-05T13:05:26.570Z,17.70
2019-02-05T13:07:57.441Z,25.20
2019-02-05T13:10:31.041Z,50.07
2019-02-05T13:13:02.584Z,14.80
2019-02-05T13:15:34.538Z,19.87
2019-02-05T13:18:04.969Z,16.37
2019-02-05T13:20:37.846Z,15.70
2019-02-05T13:23:10.085Z,15.57
2019-02-05T13:25:40.507Z,16.83
2019-02-05T13:28:13.336Z,15.40
2019-02-05T13:30:45.619Z,19.53
2019-02-05T13:33:17.210Z,15.27
2019-02-05T13:35:47.575Z,14.40
2019-02-05T13:38:18.742Z,16.93
2019-02-05T13:40:51.316Z,15.83
2019-02-05T13:43:23.695Z,13.00
2019-02-05T13:45:54.721Z,11.73
2019-02-05T13:48:25.667Z,12.80
2019-02-05T13:50:58.658Z,15.83
2019-02-05T13:53:29.835Z,15.80
2019-02-05T13:56:01.769Z,13.07
2019-02-05T13:58:34.782Z,12.07
2019-02-05T14:01:06.724Z,11.30
2019-02-05T14:03:37.872Z,11.30
2019-02-05T14:06:10.845Z,8.40
2019-02-05T14:08:42.067Z,13.90
2019-02-05T14:11:12.818Z,12.80
2019-02-05T14:13:43.813Z,11.40
2019-02-05T14:16:15.068Z,11.30
2019-02-05T14:18:54.992Z,10.77
2019-02-05T14:21:19.858Z,20.73
2019-02-05T14:23:50.921Z,12.80
2019-02-05T14:26:21.853Z,15.83
2019-02-05T14:28:54.477Z,14.00
2019-02-05T14:31:31.488Z,14.20
2019-02-05T14:34:00.812Z,21.47
2019-02-05T14:36:31.663Z,17.00
2019-02-05T14:39:04.533Z,12.10
2019-02-05T14:41:36.991Z,8.70
2019-02-05T14:44:07.999Z,9.07
2019-02-05T14:46:39.930Z,9.10
2019-02-05T14:49:12.757Z,8.50
2019-02-05T14:51:43.123Z,8.23
2019-02-05T14:54:14.897Z,10.40
2019-02-05T14:56:45.695Z,7.80
2019-02-05T14:59:16.726Z,8.60
2019-02-05T15:01:49.297Z,8.60
2019-02-05T15:04:22.963Z,8.80
2019-02-05T15:06:55.322Z,9.50
2019-02-05T15:09:27.789Z,8.17
2019-02-05T15:12:00.089Z,8.30
2019-02-05T15:14:30.968Z,8.33
2019-02-05T15:17:02.148Z,8.10
2019-02-05T15:19:34.127Z,10.90
2019-02-05T15:22:07.284Z,9.57
2019-02-05T15:24:41.012Z,17.30
2019-02-05T15:27:12.170Z,9.00
2019-02-05T15:29:43.324Z,9.30
2019-02-05T15:32:33.570Z,10.43
2019-02-05T15:35:06.516Z,9.57
2019-02-05T15:37:37.209Z,8.50
2019-02-05T15:40:09.322Z,9.10
2019-02-05T15:42:42.295Z,12.53
2019-02-05T15:45:14.835Z,21.03
2019-02-05T15:47:46.178Z,10.23
2019-02-05T15:50:18.252Z,11.30
2019-02-05T15:52:49.274Z,9.23
2019-02-05T15:55:21.179Z,8.20
2019-02-05T15:57:53.895Z,9.93
2019-02-05T16:00:24.376Z,12.17
2019-02-05T16:02:55.613Z,10.30
2019-02-05T16:05:26.255Z,7.63
2019-02-05T16:07:57.397Z,16.90
2019-02-05T16:10:28.590Z,8.57
2019-02-05T16:13:02.716Z,7.50
2019-02-05T16:15:31.679Z,10.70
2019-02-05T16:18:04.903Z,8.60
2019-02-05T16:20:35.662Z,13.40
2019-02-05T16:23:06.512Z,10.50
2019-02-05T16:25:37.504Z,10.83
2019-02-05T16:28:08.434Z,14.63
2019-02-05T16:30:39.323Z,10.90
2019-02-05T16:33:10.474Z,8.00
2019-02-05T16:35:41.546Z,8.83
2019-02-05T16:38:12.686Z,9.00
2019-02-05T16:40:43.656Z,10.43
2019-02-05T16:43:14.461Z,13.23
2019-02-05T16:45:45.587Z,10.80
2019-02-05T16:48:16.427Z,10.40
2019-02-05T16:50:47.656Z,12.20
2019-02-05T16:53:18.527Z,10.90
2019-02-05T16:55:49.730Z,10.33
2019-02-05T16:58:20.489Z,10.80
2019-02-05T17:00:51.634Z,11.10
2019-02-05T17:03:23.617Z,10.80
2019-02-05T17:05:56.592Z,9.90
2019-02-05T17:08:27.515Z,11.43
2019-02-05T17:10:58.857Z,11.37
2019-02-05T17:13:29.756Z,13.17
2019-02-05T17:16:02.704Z,11.60
2019-02-05T17:18:34.528Z,13.00
2019-02-05T17:21:07.855Z,9.67
2019-02-05T17:23:40.631Z,12.47
2019-02-05T17:26:12.606Z,10.63
2019-02-05T17:28:43.680Z,10.47
2019-02-05T17:31:14.803Z,10.40
2019-02-05T17:33:45.984Z,11.80
2019-02-05T17:36:16.803Z,9.60
2019-02-05T17:38:47.822Z,12.37
2019-02-05T17:41:18.671Z,12.40
2019-02-05T17:43:50.431Z,10.93
2019-02-05T17:46:23.829Z,14.23
2019-02-05T17:48:54.877Z,10.70
2019-02-05T17:51:25.983Z,13.63
2019-02-05T17:53:56.850Z,12.37
2019-02-05T17:56:27.854Z,14.43
2019-02-05T17:58:58.802Z,14.67
2019-02-05T18:01:29.790Z,12.40
2019-02-05T18:04:00.952Z,15.70
2019-02-05T18:06:31.385Z,13.20
2019-02-05T18:09:01.837Z,13.20
2019-02-05T18:11:34.999Z,13.50
2019-02-05T18:14:06.943Z,13.00
2019-02-05T18:16:38.917Z,14.20
2019-02-05T18:19:12.484Z,13.80
2019-02-05T18:21:43.222Z,11.80
2019-02-05T18:24:14.945Z,14.00
2019-02-05T18:26:46.990Z,13.37
2019-02-05T18:29:19.023Z,15.03
2019-02-05T18:31:49.974Z,14.10
2019-02-05T18:34:20.983Z,13.93
2019-02-05T18:36:51.991Z,15.10
2019-02-05T18:39:26.036Z,14.70
2019-02-05T18:41:56.429Z,14.97
2019-02-05T18:44:27.635Z,14.23
2019-02-05T18:46:58.561Z,13.73
2019-02-05T18:49:29.120Z,12.60
2019-02-05T18:51:59.985Z,14.33
2019-02-05T18:54:31.220Z,14.03
2019-02-05T18:57:02.118Z,14.83
2019-02-05T18:59:33.049Z,15.77
2019-02-05T19:02:04.071Z,17.43
2019-02-05T19:04:35.033Z,18.87
2019-02-05T19:07:06.079Z,13.50
2019-02-05T19:09:36.923Z,17.47
2019-02-05T19:12:07.973Z,15.37
2019-02-05T19:14:38.921Z,16.83
2019-02-05T19:17:09.702Z,16.40
2019-02-05T19:19:40.660Z,20.00
2019-02-05T19:22:11.633Z,19.07
2019-02-05T19:25:07.320Z,14.20
2019-02-05T19:27:40.345Z,23.87
2019-02-05T19:30:11.786Z,16.53
2019-02-05T19:32:43.195Z,17.27
2019-02-05T19:35:16.323Z,14.40
2019-02-05T19:37:47.677Z,16.60
2019-02-05T19:40:18.246Z,19.20
2019-02-05T19:42:49.230Z,17.03
2019-02-05T19:45:37.728Z,18.20
2019-02-05T19:48:13.956Z,14.10
2019-02-05T19:50:46.309Z,18.20
2019-02-05T19:53:18.347Z,15.20
2019-02-05T19:55:49.781Z,17.97
2019-02-05T19:58:21.277Z,13.00
2019-02-05T20:00:52.388Z,19.40
2019-02-05T20:03:23.387Z,15.63
2019-02-05T20:05:54.635Z,16.97
2019-02-05T20:08:26.913Z,14.80
2019-02-05T20:10:57.283Z,15.50
2019-02-05T20:13:39.871Z,17.90
2019-02-05T20:16:04.521Z,16.70
2019-02-05T20:18:35.569Z,18.37
2019-02-05T20:21:06.602Z,20.13
2019-02-05T20:23:39.634Z,18.80
2019-02-05T20:26:11.638Z,16.60
2019-02-05T20:28:46.191Z,20.03
2019-02-05T20:31:18.388Z,19.40
2019-02-05T20:33:50.298Z,19.93
2019-02-05T20:36:20.732Z,20.70
2019-02-05T20:38:51.523Z,19.50
2019-02-05T20:41:22.493Z,19.13
2019-02-05T20:43:53.654Z,20.70
2019-02-05T20:46:24.540Z,17.63
2019-02-05T20:48:55.615Z,19.87
2019-02-05T20:51:26.540Z,20.70
2019-02-05T20:53:57.563Z,24.70
2019-02-05T20:56:30.927Z,27.67
2019-02-05T20:59:01.633Z,17.60
2019-02-05T21:01:32.027Z,19.20
2019-02-05T21:04:03.631Z,18.83
2019-02-05T21:06:34.751Z,22.70
2019-02-05T21:09:15.268Z,22.70
2019-02-05T21:11:45.698Z,17.77
2019-02-05T21:14:16.916Z,22.77
2019-02-05T21:16:47.763Z,23.70
2019-02-05T21:19:18.799Z,21.70
2019-02-05T21:21:49.731Z,25.40
2019-02-05T21:24:20.739Z,28.23
2019-02-05T21:26:52.832Z,24.80
2019-02-05T21:29:24.649Z,22.90
2019-02-05T21:31:55.716Z,23.20
2019-02-05T21:34:26.738Z,22.60
2019-02-05T21:36:58.710Z,22.70
2019-02-05T21:39:29.755Z,23.17
2019-02-05T21:42:00.955Z,25.03
2019-02-05T21:44:31.405Z,21.97
2019-02-05T21:47:02.895Z,24.07
2019-02-05T21:49:34.860Z,24.23
2019-02-05T21:52:06.874Z,22.80
2019-02-05T21:54:37.952Z,23.70
2019-02-05T21:57:09.157Z,27.97
2019-02-05T21:59:40.068Z,25.10
2019-02-05T22:02:11.205Z,26.47
2019-02-05T22:04:41.961Z,27.13
2019-02-05T22:07:12.876Z,26.30
2019-02-05T22:09:43.852Z,27.23
2019-02-05T22:12:14.639Z,24.90
2019-02-05T22:14:45.654Z,28.50
2019-02-05T22:17:18.408Z,25.90
2019-02-05T22:19:50.894Z,27.53
2019-02-05T22:22:22.056Z,27.43
2019-02-05T22:24:55.128Z,27.47
2019-02-05T22:27:26.022Z,28.70
2019-02-05T22:29:56.936Z,29.80
2019-02-05T22:32:28.064Z,30.37
2019-02-05T22:34:59.008Z,28.13
2019-02-05T22:37:31.702Z,30.10
2019-02-05T22:40:05.317Z,26.03
2019-02-05T22:42:38.109Z,30.70
2019-02-05T22:45:12.329Z,25.77
2019-02-05T22:47:43.314Z,26.20
2019-02-05T22:50:22.276Z,25.40
2019-02-05T22:52:54.278Z,23.90
2019-02-05T22:55:25.114Z,26.90
2019-02-05T22:57:56.173Z,22.73
2019-02-05T23:01:06.357Z,23.10
2019-02-05T23:03:50.653Z,22.50
2019-02-05T23:07:15.193Z,28.03
2019-02-05T23:09:52.443Z,22.80
2019-02-05T23:12:33.039Z,23.50
2019-02-05T23:15:17.498Z,19.43
2019-02-05T23:17:48.249Z,22.17
2019-02-05T23:20:21.407Z,25.43
2019-02-05T23:22:53.323Z,24.80
2019-02-05T23:25:24.292Z,23.03
2019-02-05T23:27:55.199Z,22.37
2019-02-05T23:30:28.105Z,20.17
2019-02-05T23:33:00.339Z,22.13
2019-02-05T23:35:32.757Z,19.70
2019-02-05T23:38:05.436Z,18.10
2019-02-05T23:40:36.220Z,21.67
2019-02-05T23:43:07.292Z,21.70
2019-02-05T23:45:38.435Z,21.47
2019-02-05T23:48:11.295Z,18.47
2019-02-05T23:50:42.479Z,23.43
2019-02-05T23:53:13.465Z,18.47
2019-02-05T23:55:44.513Z,17.87
2019-02-05T23:58:15.455Z,18.60
